sensor_id;sensor_type;location;lat;lon;timestamp;P1;durP1;ratioP1;P2;durP2;ratioP2
72085;SDS011;64750;52.134;5.424;2023-02-28T00:00:21;2.80;;;2.50;;
72085;SDS011;64750;52.134;5.424;2023-02-28T00:02:48;2.70;;;2.50;;
72085;SDS011;64750;52.134;5.424;2023-02-28T00:05:17;3.17;;;2.53;;
72085;SDS011;64750;52.134;5.424;2023-02-28T00:07:45;3.13;;;2.40;;
72085;SDS011;64750;52.134;5.424;2023-02-28T00:10:13;5.03;;;2.50;;
72085;SDS011;64750;52.134;5.424;2023-02-28T00:12:41;3.55;;;2.75;;
72085;SDS011;64750;52.134;5.424;2023-02-28T00:15:08;2.80;;;2.60;;
72085;SDS011;64750;52.134;5.424;2023-02-28T00:17:36;6.53;;;2.80;;
72085;SDS011;64750;52.134;5.424;2023-02-28T00:20:03;3.03;;;2.50;;
72085;SDS011;64750;52.134;5.424;2023-02-28T00:22:34;3.72;;;2.38;;
72085;SDS011;64750;52.134;5.424;2023-02-28T00:25:00;2.78;;;2.55;;
72085;SDS011;64750;52.134;5.424;2023-02-28T00:27:27;4.20;;;2.90;;
72085;SDS011;64750;52.134;5.424;2023-02-28T00:29:53;3.13;;;2.83;;
72085;SDS011;64750;52.134;5.424;2023-02-28T00:32:20;3.25;;;2.40;;
72085;SDS011;64750;52.134;5.424;2023-02-28T00:34:46;6.28;;;2.58;;
72085;SDS011;64750;52.134;5.424;2023-02-28T00:37:13;2.53;;;2.33;;
72085;SDS011;64750;52.134;5.424;2023-02-28T00:39:39;3.25;;;2.50;;
72085;SDS011;64750;52.134;5.424;2023-02-28T00:42:07;2.80;;;2.27;;
72085;SDS011;64750;52.134;5.424;2023-02-28T00:44:33;2.63;;;2.40;;
72085;SDS011;64750;52.134;5.424;2023-02-28T00:47:00;4.18;;;1.98;;
72085;SDS011;64750;52.134;5.424;2023-02-28T00:49:26;3.92;;;2.13;;
72085;SDS011;64750;52.134;5.424;2023-02-28T00:51:54;2.65;;;2.10;;
72085;SDS011;64750;52.134;5.424;2023-02-28T00:54:22;4.63;;;1.93;;
72085;SDS011;64750;52.134;5.424;2023-02-28T00:56:49;3.58;;;1.90;;
72085;SDS011;64750;52.134;5.424;2023-02-28T00:59:16;3.00;;;2.25;;
72085;SDS011;64750;52.134;5.424;2023-02-28T01:01:44;4.43;;;2.53;;
72085;SDS011;64750;52.134;5.424;2023-02-28T01:04:12;7.35;;;1.92;;
72085;SDS011;64750;52.134;5.424;2023-02-28T01:06:40;3.03;;;2.17;;
72085;SDS011;64750;52.134;5.424;2023-02-28T01:09:07;3.97;;;2.05;;
72085;SDS011;64750;52.134;5.424;2023-02-28T01:11:34;3.03;;;2.25;;
72085;SDS011;64750;52.134;5.424;2023-02-28T01:14:00;3.17;;;2.20;;
72085;SDS011;64750;52.134;5.424;2023-02-28T01:16:28;2.60;;;2.25;;
72085;SDS011;64750;52.134;5.424;2023-02-28T01:18:54;5.23;;;2.30;;
72085;SDS011;64750;52.134;5.424;2023-02-28T01:21:21;2.55;;;2.20;;
72085;SDS011;64750;52.134;5.424;2023-02-28T01:23:48;2.28;;;2.08;;
72085;SDS011;64750;52.134;5.424;2023-02-28T01:26:19;4.07;;;2.22;;
72085;SDS011;64750;52.134;5.424;2023-02-28T01:28:48;6.63;;;2.22;;
72085;SDS011;64750;52.134;5.424;2023-02-28T01:31:16;3.90;;;2.30;;
72085;SDS011;64750;52.134;5.424;2023-02-28T01:33:44;5.28;;;2.30;;
72085;SDS011;64750;52.134;5.424;2023-02-28T01:36:15;3.35;;;2.08;;
72085;SDS011;64750;52.134;5.424;2023-02-28T01:38:44;4.40;;;2.33;;
72085;SDS011;64750;52.134;5.424;2023-02-28T01:41:21;4.47;;;2.03;;
72085;SDS011;64750;52.134;5.424;2023-02-28T01:44:02;4.87;;;2.07;;
72085;SDS011;64750;52.134;5.424;2023-02-28T01:46:32;2.25;;;1.77;;
72085;SDS011;64750;52.134;5.424;2023-02-28T01:49:06;6.25;;;2.47;;
72085;SDS011;64750;52.134;5.424;2023-02-28T01:54:13;2.25;;;1.85;;
72085;SDS011;64750;52.134;5.424;2023-02-28T01:56:44;4.00;;;2.47;;
72085;SDS011;64750;52.134;5.424;2023-02-28T01:59:19;3.35;;;1.85;;
72085;SDS011;64750;52.134;5.424;2023-02-28T02:01:50;2.20;;;1.85;;
72085;SDS011;64750;52.134;5.424;2023-02-28T02:04:17;4.25;;;2.10;;
72085;SDS011;64750;52.134;5.424;2023-02-28T02:06:46;5.40;;;1.95;;
72085;SDS011;64750;52.134;5.424;2023-02-28T02:09:14;2.07;;;1.90;;
72085;SDS011;64750;52.134;5.424;2023-02-28T02:11:41;3.28;;;2.08;;
72085;SDS011;64750;52.134;5.424;2023-02-28T02:25:11;3.05;;;1.98;;
72085;SDS011;64750;52.134;5.424;2023-02-28T02:27:59;2.10;;;1.90;;
72085;SDS011;64750;52.134;5.424;2023-02-28T02:30:33;2.95;;;2.38;;
72085;SDS011;64750;52.134;5.424;2023-02-28T02:36:13;3.57;;;2.30;;
72085;SDS011;64750;52.134;5.424;2023-02-28T02:38:49;2.35;;;1.92;;
72085;SDS011;64750;52.134;5.424;2023-02-28T02:41:22;3.22;;;1.98;;
72085;SDS011;64750;52.134;5.424;2023-02-28T02:44:14;2.42;;;1.77;;
72085;SDS011;64750;52.134;5.424;2023-02-28T02:47:04;2.45;;;1.88;;
72085;SDS011;64750;52.134;5.424;2023-02-28T02:49:36;3.83;;;1.80;;
72085;SDS011;64750;52.134;5.424;2023-02-28T02:52:08;7.95;;;2.25;;
72085;SDS011;64750;52.134;5.424;2023-02-28T02:54:40;3.00;;;1.88;;
72085;SDS011;64750;52.134;5.424;2023-02-28T02:57:11;1.98;;;1.77;;
72085;SDS011;64750;52.134;5.424;2023-02-28T02:59:42;5.90;;;2.50;;
72085;SDS011;64750;52.134;5.424;2023-02-28T03:02:11;4.37;;;2.40;;
72085;SDS011;64750;52.134;5.424;2023-02-28T03:04:42;2.33;;;2.08;;
72085;SDS011;64750;52.134;5.424;2023-02-28T03:07:12;4.13;;;2.10;;
72085;SDS011;64750;52.134;5.424;2023-02-28T03:09:38;4.45;;;2.35;;
72085;SDS011;64750;52.134;5.424;2023-02-28T03:12:06;3.72;;;2.35;;
72085;SDS011;64750;52.134;5.424;2023-02-28T03:14:40;5.00;;;1.87;;
72085;SDS011;64750;52.134;5.424;2023-02-28T03:27:54;3.90;;;2.03;;
72085;SDS011;64750;52.134;5.424;2023-02-28T03:33:11;7.32;;;2.58;;
72085;SDS011;64750;52.134;5.424;2023-02-28T03:35:49;5.15;;;2.80;;
72085;SDS011;64750;52.134;5.424;2023-02-28T03:38:22;4.40;;;2.10;;
72085;SDS011;64750;52.134;5.424;2023-02-28T03:41:00;3.27;;;2.23;;
72085;SDS011;64750;52.134;5.424;2023-02-28T03:43:33;3.05;;;2.25;;
72085;SDS011;64750;52.134;5.424;2023-02-28T03:46:02;4.10;;;2.20;;
72085;SDS011;64750;52.134;5.424;2023-02-28T03:48:45;2.53;;;2.33;;
72085;SDS011;64750;52.134;5.424;2023-02-28T03:51:17;2.72;;;2.30;;
72085;SDS011;64750;52.134;5.424;2023-02-28T03:53:49;3.90;;;2.27;;
72085;SDS011;64750;52.134;5.424;2023-02-28T03:56:22;3.88;;;2.00;;
72085;SDS011;64750;52.134;5.424;2023-02-28T04:04:09;2.38;;;2.13;;
72085;SDS011;64750;52.134;5.424;2023-02-28T04:06:36;7.20;;;2.13;;
72085;SDS011;64750;52.134;5.424;2023-02-28T04:09:04;5.28;;;2.10;;
72085;SDS011;64750;52.134;5.424;2023-02-28T04:11:33;3.42;;;2.40;;
72085;SDS011;64750;52.134;5.424;2023-02-28T04:14:02;3.08;;;2.05;;
72085;SDS011;64750;52.134;5.424;2023-02-28T04:16:30;2.10;;;1.90;;
72085;SDS011;64750;52.134;5.424;2023-02-28T04:19:02;2.03;;;1.83;;
72085;SDS011;64750;52.134;5.424;2023-02-28T04:21:34;3.38;;;2.00;;
72085;SDS011;64750;52.134;5.424;2023-02-28T04:24:03;5.82;;;1.70;;
72085;SDS011;64750;52.134;5.424;2023-02-28T04:26:31;2.33;;;1.80;;
72085;SDS011;64750;52.134;5.424;2023-02-28T04:28:58;1.50;;;1.30;;
72085;SDS011;64750;52.134;5.424;2023-02-28T04:31:25;1.40;;;1.23;;
72085;SDS011;64750;52.134;5.424;2023-02-28T04:33:52;2.58;;;1.50;;
72085;SDS011;64750;52.134;5.424;2023-02-28T04:36:18;2.10;;;1.35;;
72085;SDS011;64750;52.134;5.424;2023-02-28T04:38:45;2.33;;;1.80;;
72085;SDS011;64750;52.134;5.424;2023-02-28T04:41:12;1.98;;;1.75;;
72085;SDS011;64750;52.134;5.424;2023-02-28T04:43:39;3.03;;;1.60;;
72085;SDS011;64750;52.134;5.424;2023-02-28T04:46:06;2.05;;;1.85;;
72085;SDS011;64750;52.134;5.424;2023-02-28T04:48:33;3.13;;;2.10;;
72085;SDS011;64750;52.134;5.424;2023-02-28T04:51:06;2.85;;;1.50;;
72085;SDS011;64750;52.134;5.424;2023-02-28T04:53:40;3.35;;;1.73;;
72085;SDS011;64750;52.134;5.424;2023-02-28T04:56:09;3.90;;;1.87;;
72085;SDS011;64750;52.134;5.424;2023-02-28T04:58:38;1.92;;;1.80;;
72085;SDS011;64750;52.134;5.424;2023-02-28T05:01:06;2.00;;;1.80;;
72085;SDS011;64750;52.134;5.424;2023-02-28T05:03:44;3.35;;;1.63;;
72085;SDS011;64750;52.134;5.424;2023-02-28T05:06:11;3.13;;;1.58;;
72085;SDS011;64750;52.134;5.424;2023-02-28T05:08:39;1.70;;;1.60;;
72085;SDS011;64750;52.134;5.424;2023-02-28T05:11:21;1.95;;;1.33;;
72085;SDS011;64750;52.134;5.424;2023-02-28T05:13:51;1.65;;;1.55;;
72085;SDS011;64750;52.134;5.424;2023-02-28T05:16:18;1.35;;;1.25;;
72085;SDS011;64750;52.134;5.424;2023-02-28T05:18:45;2.42;;;1.60;;
72085;SDS011;64750;52.134;5.424;2023-02-28T05:21:31;2.43;;;1.60;;
72085;SDS011;64750;52.134;5.424;2023-02-28T05:24:01;8.20;;;2.00;;
72085;SDS011;64750;52.134;5.424;2023-02-28T05:26:30;1.45;;;1.35;;
72085;SDS011;64750;52.134;5.424;2023-02-28T05:28:57;3.88;;;1.52;;
72085;SDS011;64750;52.134;5.424;2023-02-28T05:31:23;1.67;;;1.58;;
72085;SDS011;64750;52.134;5.424;2023-02-28T05:33:50;3.00;;;1.60;;
72085;SDS011;64750;52.134;5.424;2023-02-28T05:36:17;2.00;;;1.70;;
72085;SDS011;64750;52.134;5.424;2023-02-28T05:38:45;1.60;;;1.50;;
72085;SDS011;64750;52.134;5.424;2023-02-28T05:41:13;1.75;;;1.65;;
72085;SDS011;64750;52.134;5.424;2023-02-28T05:43:40;3.25;;;1.50;;
72085;SDS011;64750;52.134;5.424;2023-02-28T05:46:07;2.03;;;1.40;;
72085;SDS011;64750;52.134;5.424;2023-02-28T05:48:36;1.83;;;1.73;;
72085;SDS011;64750;52.134;5.424;2023-02-28T05:51:04;1.60;;;1.50;;
72085;SDS011;64750;52.134;5.424;2023-02-28T05:53:31;2.40;;;1.60;;
72085;SDS011;64750;52.134;5.424;2023-02-28T05:55:58;3.17;;;1.65;;
72085;SDS011;64750;52.134;5.424;2023-02-28T05:58:25;2.80;;;1.50;;
72085;SDS011;64750;52.134;5.424;2023-02-28T06:00:57;2.92;;;2.25;;
72085;SDS011;64750;52.134;5.424;2023-02-28T06:03:26;2.65;;;1.92;;
72085;SDS011;64750;52.134;5.424;2023-02-28T06:05:53;6.35;;;1.98;;
72085;SDS011;64750;52.134;5.424;2023-02-28T06:08:20;1.80;;;1.70;;
72085;SDS011;64750;52.134;5.424;2023-02-28T06:10:46;1.70;;;1.60;;
72085;SDS011;64750;52.134;5.424;2023-02-28T06:13:13;2.13;;;1.92;;
72085;SDS011;64750;52.134;5.424;2023-02-28T06:15:39;4.13;;;1.92;;
72085;SDS011;64750;52.134;5.424;2023-02-28T06:18:06;2.03;;;1.85;;
72085;SDS011;64750;52.134;5.424;2023-02-28T06:20:33;3.40;;;1.90;;
72085;SDS011;64750;52.134;5.424;2023-02-28T06:23:00;3.53;;;1.73;;
72085;SDS011;64750;52.134;5.424;2023-02-28T06:25:27;2.55;;;2.35;;
72085;SDS011;64750;52.134;5.424;2023-02-28T06:27:54;3.83;;;2.35;;
72085;SDS011;64750;52.134;5.424;2023-02-28T06:30:21;4.53;;;2.28;;
72085;SDS011;64750;52.134;5.424;2023-02-28T06:32:51;2.60;;;2.40;;
72085;SDS011;64750;52.134;5.424;2023-02-28T06:35:18;3.73;;;2.20;;
72085;SDS011;64750;52.134;5.424;2023-02-28T06:37:45;3.65;;;2.50;;
72085;SDS011;64750;52.134;5.424;2023-02-28T06:40:13;3.63;;;2.75;;
72085;SDS011;64750;52.134;5.424;2023-02-28T06:42:40;5.50;;;2.60;;
72085;SDS011;64750;52.134;5.424;2023-02-28T06:45:07;3.95;;;2.38;;
72085;SDS011;64750;52.134;5.424;2023-02-28T06:47:36;2.57;;;2.33;;
72085;SDS011;64750;52.134;5.424;2023-02-28T06:50:04;2.55;;;2.30;;
72085;SDS011;64750;52.134;5.424;2023-02-28T06:52:31;3.15;;;2.20;;
72085;SDS011;64750;52.134;5.424;2023-02-28T06:54:58;4.18;;;2.58;;
72085;SDS011;64750;52.134;5.424;2023-02-28T06:57:29;2.47;;;2.33;;
72085;SDS011;64750;52.134;5.424;2023-02-28T06:59:59;15.17;;;2.73;;
72085;SDS011;64750;52.134;5.424;2023-02-28T07:02:27;2.10;;;1.98;;
72085;SDS011;64750;52.134;5.424;2023-02-28T07:04:53;2.47;;;2.15;;
72085;SDS011;64750;52.134;5.424;2023-02-28T07:07:20;3.53;;;2.28;;
72085;SDS011;64750;52.134;5.424;2023-02-28T07:09:47;3.85;;;2.55;;
72085;SDS011;64750;52.134;5.424;2023-02-28T07:12:13;4.40;;;2.70;;
72085;SDS011;64750;52.134;5.424;2023-02-28T07:14:39;3.15;;;2.17;;
72085;SDS011;64750;52.134;5.424;2023-02-28T07:17:09;2.45;;;1.92;;
72085;SDS011;64750;52.134;5.424;2023-02-28T07:19:38;2.30;;;2.10;;
72085;SDS011;64750;52.134;5.424;2023-02-28T07:22:05;2.45;;;2.17;;
72085;SDS011;64750;52.134;5.424;2023-02-28T07:24:33;2.80;;;2.00;;
72085;SDS011;64750;52.134;5.424;2023-02-28T07:26:59;2.78;;;2.35;;
72085;SDS011;64750;52.134;5.424;2023-02-28T07:29:27;2.10;;;1.90;;
72085;SDS011;64750;52.134;5.424;2023-02-28T07:31:55;2.83;;;2.40;;
72085;SDS011;64750;52.134;5.424;2023-02-28T07:34:22;2.33;;;2.13;;
72085;SDS011;64750;52.134;5.424;2023-02-28T07:36:48;4.13;;;2.60;;
72085;SDS011;64750;52.134;5.424;2023-02-28T07:39:20;3.88;;;2.58;;
72085;SDS011;64750;52.134;5.424;2023-02-28T07:41:47;3.05;;;2.38;;
72085;SDS011;64750;52.134;5.424;2023-02-28T07:44:14;2.45;;;2.28;;
72085;SDS011;64750;52.134;5.424;2023-02-28T07:46:41;2.60;;;2.40;;
72085;SDS011;64750;52.134;5.424;2023-02-28T07:49:07;3.20;;;2.10;;
72085;SDS011;64750;52.134;5.424;2023-02-28T07:51:34;2.95;;;2.47;;
72085;SDS011;64750;52.134;5.424;2023-02-28T07:54:00;2.10;;;2.00;;
72085;SDS011;64750;52.134;5.424;2023-02-28T07:56:27;3.13;;;2.33;;
72085;SDS011;64750;52.134;5.424;2023-02-28T07:58:54;2.58;;;2.38;;
72085;SDS011;64750;52.134;5.424;2023-02-28T08:01:20;4.20;;;3.00;;
72085;SDS011;64750;52.134;5.424;2023-02-28T08:03:47;3.28;;;2.42;;
72085;SDS011;64750;52.134;5.424;2023-02-28T08:06:18;2.80;;;2.60;;
72085;SDS011;64750;52.134;5.424;2023-02-28T08:08:47;3.63;;;2.80;;
72085;SDS011;64750;52.134;5.424;2023-02-28T08:11:14;2.42;;;2.25;;
72085;SDS011;64750;52.134;5.424;2023-02-28T08:13:42;7.47;;;2.80;;
72085;SDS011;64750;52.134;5.424;2023-02-28T08:16:10;2.85;;;2.33;;
72085;SDS011;64750;52.134;5.424;2023-02-28T08:18:37;3.72;;;2.67;;
72085;SDS011;64750;52.134;5.424;2023-02-28T08:21:07;3.10;;;2.80;;
72085;SDS011;64750;52.134;5.424;2023-02-28T08:23:36;2.92;;;2.63;;
72085;SDS011;64750;52.134;5.424;2023-02-28T08:26:02;4.03;;;2.83;;
72085;SDS011;64750;52.134;5.424;2023-02-28T08:28:29;3.55;;;2.85;;
72085;SDS011;64750;52.134;5.424;2023-02-28T08:30:56;3.25;;;2.75;;
72085;SDS011;64750;52.134;5.424;2023-02-28T08:33:24;2.30;;;2.20;;
72085;SDS011;64750;52.134;5.424;2023-02-28T08:35:53;3.65;;;2.53;;
72085;SDS011;64750;52.134;5.424;2023-02-28T08:38:20;2.73;;;2.47;;
72085;SDS011;64750;52.134;5.424;2023-02-28T08:40:47;4.38;;;2.90;;
72085;SDS011;64750;52.134;5.424;2023-02-28T08:43:13;2.70;;;2.50;;
72085;SDS011;64750;52.134;5.424;2023-02-28T08:45:40;3.60;;;3.30;;
72085;SDS011;64750;52.134;5.424;2023-02-28T08:48:06;2.65;;;2.45;;
72085;SDS011;64750;52.134;5.424;2023-02-28T08:50:33;2.60;;;2.40;;
72085;SDS011;64750;52.134;5.424;2023-02-28T08:52:59;4.30;;;2.55;;
72085;SDS011;64750;52.134;5.424;2023-02-28T08:55:26;2.42;;;2.00;;
72085;SDS011;64750;52.134;5.424;2023-02-28T08:57:52;2.50;;;2.30;;
72085;SDS011;64750;52.134;5.424;2023-02-28T09:00:18;2.28;;;2.17;;
72085;SDS011;64750;52.134;5.424;2023-02-28T09:02:45;2.10;;;1.73;;
72085;SDS011;64750;52.134;5.424;2023-02-28T09:05:12;2.60;;;2.03;;
72085;SDS011;64750;52.134;5.424;2023-02-28T09:07:38;3.42;;;2.08;;
72085;SDS011;64750;52.134;5.424;2023-02-28T09:10:05;2.10;;;1.90;;
72085;SDS011;64750;52.134;5.424;2023-02-28T09:12:33;1.88;;;1.77;;
72085;SDS011;64750;52.134;5.424;2023-02-28T09:15:01;1.80;;;1.70;;
72085;SDS011;64750;52.134;5.424;2023-02-28T09:17:28;1.58;;;1.48;;
72085;SDS011;64750;52.134;5.424;2023-02-28T09:19:56;3.35;;;1.42;;
72085;SDS011;64750;52.134;5.424;2023-02-28T09:22:23;1.70;;;1.60;;
72085;SDS011;64750;52.134;5.424;2023-02-28T09:24:49;1.88;;;1.70;;
72085;SDS011;64750;52.134;5.424;2023-02-28T09:27:16;1.33;;;1.23;;
72085;SDS011;64750;52.134;5.424;2023-02-28T09:29:42;2.15;;;1.45;;
72085;SDS011;64750;52.134;5.424;2023-02-28T09:32:08;4.75;;;1.50;;
72085;SDS011;64750;52.134;5.424;2023-02-28T09:34:35;1.13;;;1.00;;
72085;SDS011;64750;52.134;5.424;2023-02-28T09:37:03;2.30;;;1.20;;
72085;SDS011;64750;52.134;5.424;2023-02-28T09:39:29;0.87;;;0.70;;
72085;SDS011;64750;52.134;5.424;2023-02-28T09:41:56;1.00;;;0.85;;
72085;SDS011;64750;52.134;5.424;2023-02-28T09:44:34;1.25;;;1.15;;
72085;SDS011;64750;52.134;5.424;2023-02-28T09:49:41;1.00;;;1.00;;
72085;SDS011;64750;52.134;5.424;2023-02-28T09:52:11;1.40;;;0.80;;
72085;SDS011;64750;52.134;5.424;2023-02-28T09:54:47;0.93;;;0.80;;
72085;SDS011;64750;52.134;5.424;2023-02-28T09:57:19;3.83;;;0.90;;
72085;SDS011;64750;52.134;5.424;2023-02-28T10:05:36;1.00;;;1.00;;
72085;SDS011;64750;52.134;5.424;2023-02-28T10:08:13;0.90;;;0.80;;
72085;SDS011;64750;52.134;5.424;2023-02-28T10:10:57;0.77;;;0.70;;
72085;SDS011;64750;52.134;5.424;2023-02-28T10:16:01;1.10;;;0.80;;
72085;SDS011;64750;52.134;5.424;2023-02-28T10:21:23;0.80;;;0.80;;
72085;SDS011;64750;52.134;5.424;2023-02-28T10:23:56;1.60;;;0.85;;
72085;SDS011;64750;52.134;5.424;2023-02-28T10:26:29;0.80;;;0.80;;
72085;SDS011;64750;52.134;5.424;2023-02-28T10:28:57;1.30;;;1.20;;
72085;SDS011;64750;52.134;5.424;2023-02-28T10:31:24;0.77;;;0.77;;
72085;SDS011;64750;52.134;5.424;2023-02-28T10:33:51;1.00;;;0.85;;
72085;SDS011;64750;52.134;5.424;2023-02-28T10:36:19;0.93;;;0.82;;
72085;SDS011;64750;52.134;5.424;2023-02-28T10:38:47;1.30;;;1.20;;
72085;SDS011;64750;52.134;5.424;2023-02-28T10:41:26;1.38;;;1.27;;
72085;SDS011;64750;52.134;5.424;2023-02-28T10:46:44;0.80;;;0.70;;
72085;SDS011;64750;52.134;5.424;2023-02-28T10:49:20;1.27;;;1.13;;
72085;SDS011;64750;52.134;5.424;2023-02-28T10:51:49;1.50;;;0.95;;
72085;SDS011;64750;52.134;5.424;2023-02-28T10:54:19;1.05;;;0.90;;
72085;SDS011;64750;52.134;5.424;2023-02-28T11:00:05;1.23;;;0.98;;
72085;SDS011;64750;52.134;5.424;2023-02-28T11:03:01;2.05;;;1.00;;
72085;SDS011;64750;52.134;5.424;2023-02-28T11:08:14;1.20;;;1.10;;
72085;SDS011;64750;52.134;5.424;2023-02-28T11:10:53;1.33;;;1.00;;
72085;SDS011;64750;52.134;5.424;2023-02-28T11:13:25;1.08;;;0.98;;
72085;SDS011;64750;52.134;5.424;2023-02-28T11:15:55;1.55;;;0.90;;
72085;SDS011;64750;52.134;5.424;2023-02-28T11:18:35;1.17;;;0.90;;
72085;SDS011;64750;52.134;5.424;2023-02-28T11:21:04;0.93;;;0.93;;
72085;SDS011;64750;52.134;5.424;2023-02-28T11:23:32;1.50;;;1.07;;
72085;SDS011;64750;52.134;5.424;2023-02-28T11:26:03;0.80;;;0.80;;
72085;SDS011;64750;52.134;5.424;2023-02-28T11:33:52;1.45;;;1.00;;
72085;SDS011;64750;52.134;5.424;2023-02-28T11:36:19;0.93;;;0.93;;
72085;SDS011;64750;52.134;5.424;2023-02-28T11:38:51;1.65;;;1.20;;
72085;SDS011;64750;52.134;5.424;2023-02-28T11:41:31;1.20;;;1.10;;
72085;SDS011;64750;52.134;5.424;2023-02-28T11:46:53;1.88;;;0.82;;
72085;SDS011;64750;52.134;5.424;2023-02-28T12:03:39;1.13;;;1.00;;
72085;SDS011;64750;52.134;5.424;2023-02-28T12:06:31;1.35;;;0.65;;
72085;SDS011;64750;52.134;5.424;2023-02-28T12:09:08;1.73;;;1.00;;
72085;SDS011;64750;52.134;5.424;2023-02-28T12:12:00;2.13;;;0.90;;
72085;SDS011;64750;52.134;5.424;2023-02-28T12:14:53;0.80;;;0.73;;
72085;SDS011;64750;52.134;5.424;2023-02-28T12:17:46;1.77;;;1.03;;
72085;SDS011;64750;52.134;5.424;2023-02-28T12:20:33;1.70;;;1.02;;
72085;SDS011;64750;52.134;5.424;2023-02-28T12:28:38;3.75;;;0.93;;
72085;SDS011;64750;52.134;5.424;2023-02-28T12:31:11;1.87;;;1.00;;
72085;SDS011;64750;52.134;5.424;2023-02-28T12:33:46;1.08;;;0.98;;
72085;SDS011;64750;52.134;5.424;2023-02-28T12:36:17;1.25;;;1.00;;
72085;SDS011;64750;52.134;5.424;2023-02-28T12:41:18;1.75;;;1.20;;
72085;SDS011;64750;52.134;5.424;2023-02-28T12:43:51;1.70;;;1.00;;
72085;SDS011;64750;52.134;5.424;2023-02-28T12:46:34;1.08;;;1.08;;
72085;SDS011;64750;52.134;5.424;2023-02-28T12:49:06;1.02;;;0.93;;
72085;SDS011;64750;52.134;5.424;2023-02-28T12:51:36;1.05;;;0.85;;
72085;SDS011;64750;52.134;5.424;2023-02-28T12:54:16;1.13;;;1.02;;
72085;SDS011;64750;52.134;5.424;2023-02-28T12:56:56;1.20;;;0.97;;
72085;SDS011;64750;52.134;5.424;2023-02-28T12:59:54;0.93;;;0.77;;
72085;SDS011;64750;52.134;5.424;2023-02-28T13:05:03;1.52;;;1.20;;
72085;SDS011;64750;52.134;5.424;2023-02-28T13:07:45;1.65;;;0.90;;
72085;SDS011;64750;52.134;5.424;2023-02-28T13:10:33;1.57;;;1.47;;
72085;SDS011;64750;52.134;5.424;2023-02-28T13:13:04;1.08;;;0.98;;
72085;SDS011;64750;52.134;5.424;2023-02-28T13:15:31;0.88;;;0.88;;
72085;SDS011;64750;52.134;5.424;2023-02-28T13:18:01;1.40;;;1.00;;
72085;SDS011;64750;52.134;5.424;2023-02-28T13:20:34;1.20;;;1.10;;
72085;SDS011;64750;52.134;5.424;2023-02-28T13:23:03;1.57;;;0.97;;
72085;SDS011;64750;52.134;5.424;2023-02-28T13:28:01;2.05;;;1.15;;
72085;SDS011;64750;52.134;5.424;2023-02-28T13:38:55;1.45;;;1.35;;
72085;SDS011;64750;52.134;5.424;2023-02-28T13:52:12;1.65;;;1.30;;
72085;SDS011;64750;52.134;5.424;2023-02-28T14:05:45;3.78;;;1.27;;
72085;SDS011;64750;52.134;5.424;2023-02-28T14:08:16;1.50;;;1.10;;
72085;SDS011;64750;52.134;5.424;2023-02-28T14:10:47;1.60;;;1.23;;
72085;SDS011;64750;52.134;5.424;2023-02-28T14:16:17;1.30;;;1.20;;
72085;SDS011;64750;52.134;5.424;2023-02-28T14:18:48;1.90;;;1.40;;
72085;SDS011;64750;52.134;5.424;2023-02-28T14:37:51;1.83;;;1.10;;
72085;SDS011;64750;52.134;5.424;2023-02-28T14:40:26;2.00;;;1.20;;
72085;SDS011;64750;52.134;5.424;2023-02-28T14:42:57;2.20;;;1.20;;
72085;SDS011;64750;52.134;5.424;2023-02-28T14:45:34;1.70;;;1.20;;
72085;SDS011;64750;52.134;5.424;2023-02-28T14:48:03;1.30;;;1.20;;
72085;SDS011;64750;52.134;5.424;2023-02-28T14:50:35;1.50;;;1.23;;
72085;SDS011;64750;52.134;5.424;2023-02-28T14:53:03;1.83;;;1.00;;
72085;SDS011;64750;52.134;5.424;2023-02-28T14:55:43;1.37;;;1.27;;
72085;SDS011;64750;52.134;5.424;2023-02-28T14:58:32;1.48;;;1.20;;
72085;SDS011;64750;52.134;5.424;2023-02-28T15:01:00;1.25;;;1.10;;
72085;SDS011;64750;52.134;5.424;2023-02-28T15:06:06;1.35;;;1.23;;
72085;SDS011;64750;52.134;5.424;2023-02-28T15:08:44;1.23;;;1.13;;
72085;SDS011;64750;52.134;5.424;2023-02-28T15:11:15;1.77;;;1.25;;
72085;SDS011;64750;52.134;5.424;2023-02-28T15:13:46;1.33;;;1.05;;
72085;SDS011;64750;52.134;5.424;2023-02-28T15:18:59;1.38;;;1.27;;
72085;SDS011;64750;52.134;5.424;2023-02-28T15:21:32;1.30;;;1.07;;
72085;SDS011;64750;52.134;5.424;2023-02-28T15:24:06;1.30;;;1.20;;
72085;SDS011;64750;52.134;5.424;2023-02-28T15:26:40;1.35;;;1.25;;
72085;SDS011;64750;52.134;5.424;2023-02-28T15:29:13;3.17;;;1.23;;
72085;SDS011;64750;52.134;5.424;2023-02-28T15:31:51;1.52;;;1.10;;
72085;SDS011;64750;52.134;5.424;2023-02-28T15:34:39;1.40;;;1.30;;
72085;SDS011;64750;52.134;5.424;2023-02-28T15:40:37;1.50;;;1.40;;
72085;SDS011;64750;52.134;5.424;2023-02-28T15:42:59;1.40;;;1.30;;
72085;SDS011;64750;52.134;5.424;2023-02-28T15:45:47;1.13;;;1.02;;
72085;SDS011;64750;52.134;5.424;2023-02-28T15:48:20;1.30;;;1.20;;
72085;SDS011;64750;52.134;5.424;2023-02-28T15:56:26;1.20;;;1.10;;
72085;SDS011;64750;52.134;5.424;2023-02-28T15:59:01;2.33;;;1.05;;
72085;SDS011;64750;52.134;5.424;2023-02-28T16:01:36;1.37;;;1.03;;
72085;SDS011;64750;52.134;5.424;2023-02-28T16:04:25;1.35;;;1.00;;
72085;SDS011;64750;52.134;5.424;2023-02-28T16:09:25;1.75;;;1.27;;
72085;SDS011;64750;52.134;5.424;2023-02-28T16:11:54;1.35;;;1.08;;
72085;SDS011;64750;52.134;5.424;2023-02-28T16:14:23;1.40;;;1.30;;
72085;SDS011;64750;52.134;5.424;2023-02-28T16:16:54;1.38;;;1.27;;
72085;SDS011;64750;52.134;5.424;2023-02-28T16:19:23;1.13;;;0.90;;
72085;SDS011;64750;52.134;5.424;2023-02-28T16:21:50;1.27;;;1.00;;
72085;SDS011;64750;52.134;5.424;2023-02-28T16:24:17;1.40;;;1.25;;
72085;SDS011;64750;52.134;5.424;2023-02-28T16:26:45;2.57;;;1.43;;
72085;SDS011;64750;52.134;5.424;2023-02-28T16:29:34;1.60;;;1.50;;
72085;SDS011;64750;52.134;5.424;2023-02-28T16:32:03;2.08;;;1.70;;
72085;SDS011;64750;52.134;5.424;2023-02-28T16:34:31;2.45;;;1.30;;
72085;SDS011;64750;52.134;5.424;2023-02-28T16:36:58;4.40;;;1.70;;
72085;SDS011;64750;52.134;5.424;2023-02-28T16:39:24;3.20;;;1.70;;
72085;SDS011;64750;52.134;5.424;2023-02-28T16:41:51;1.40;;;1.30;;
72085;SDS011;64750;52.134;5.424;2023-02-28T16:46:53;2.08;;;1.50;;
72085;SDS011;64750;52.134;5.424;2023-02-28T16:49:20;1.48;;;1.38;;
72085;SDS011;64750;52.134;5.424;2023-02-28T16:51:47;1.60;;;1.50;;
72085;SDS011;64750;52.134;5.424;2023-02-28T16:54:13;2.63;;;1.30;;
72085;SDS011;64750;52.134;5.424;2023-02-28T16:56:41;1.80;;;1.50;;
72085;SDS011;64750;52.134;5.424;2023-02-28T16:59:10;1.83;;;1.40;;
72085;SDS011;64750;52.134;5.424;2023-02-28T17:01:38;1.52;;;1.42;;
72085;SDS011;64750;52.134;5.424;2023-02-28T17:04:05;1.70;;;1.60;;
72085;SDS011;64750;52.134;5.424;2023-02-28T17:06:31;1.42;;;1.30;;
72085;SDS011;64750;52.134;5.424;2023-02-28T17:08:58;1.70;;;1.60;;
72085;SDS011;64750;52.134;5.424;2023-02-28T17:11:25;1.98;;;1.55;;
72085;SDS011;64750;52.134;5.424;2023-02-28T17:13:52;1.77;;;1.60;;
72085;SDS011;64750;52.134;5.424;2023-02-28T17:18:52;2.28;;;1.90;;
72085;SDS011;64750;52.134;5.424;2023-02-28T17:21:20;1.83;;;1.73;;
72085;SDS011;64750;52.134;5.424;2023-02-28T17:23:47;4.00;;;3.03;;
72085;SDS011;64750;52.134;5.424;2023-02-28T17:26:17;4.25;;;3.85;;
72085;SDS011;64750;52.134;5.424;2023-02-28T17:28:49;6.13;;;4.17;;
72085;SDS011;64750;52.134;5.424;2023-02-28T17:31:17;10.60;;;7.57;;
72085;SDS011;64750;52.134;5.424;2023-02-28T17:33:43;23.45;;;10.60;;
72085;SDS011;64750;52.134;5.424;2023-02-28T17:36:13;36.58;;;16.73;;
72085;SDS011;64750;52.134;5.424;2023-02-28T17:38:41;37.55;;;17.00;;
72085;SDS011;64750;52.134;5.424;2023-02-28T17:41:09;72.13;;;31.60;;
72085;SDS011;64750;52.134;5.424;2023-02-28T17:43:36;73.43;;;33.40;;
72085;SDS011;64750;52.134;5.424;2023-02-28T17:46:03;67.53;;;31.25;;
72085;SDS011;64750;52.134;5.424;2023-02-28T17:48:33;57.70;;;29.25;;
72085;SDS011;64750;52.134;5.424;2023-02-28T17:51:01;16.38;;;10.23;;